CYNR

SPECI CYNR 241315Z AUTO 03004KT 9SM -SN BKN006 BKN054 OVC076 M14/M17 A3003 RMK AO2 SLP205
SPECI
LOCATION
CYNR
DATE - TIME
241315Z
WIND
030 TRUE @ 4 KNOTS
VISIBILITY
9SM
RUNWAY VISUAL RANGE
NOT REPORTED
WEATHER
SNOW, SLIGHT
CLOUDINESS
BKN006 BKN054 OVC076
TEMP / DEWPOINT
-14 ºC / -17 ºC
ALTIMETER
30.03 in. Hg
RECENT WEATHER
NOT REPORTED
WIND SHEAR
NOT REPORTED
REMARKS
RMK AO2 SLP205
SEA LEVEL PRESSURE: hPa

CYNR

SPECI CYNR 241313Z AUTO 03004KT 9SM -SN SCT007 BKN014 BKN054 M14/M17 A3003 RMK AO2 SLP204
SPECI
LOCATION
CYNR
DATE - TIME
241313Z
WIND
030 TRUE @ 4 KNOTS
VISIBILITY
9SM
RUNWAY VISUAL RANGE
NOT REPORTED
WEATHER
SNOW, SLIGHT
CLOUDINESS
SCT007 BKN014 BKN054
TEMP / DEWPOINT
-14 ºC / -17 ºC
ALTIMETER
30.03 in. Hg
RECENT WEATHER
NOT REPORTED
WIND SHEAR
NOT REPORTED
REMARKS
RMK AO2 SLP204
SEA LEVEL PRESSURE: hPa

CYNR

SPECI CYNR 241311Z AUTO 04005KT 9SM -SN SCT007 BKN015 BKN052 M14/M17 A3002 RMK AO2 SLP204
SPECI
LOCATION
CYNR
DATE - TIME
241311Z
WIND
040 TRUE @ 5 KNOTS
VISIBILITY
9SM
RUNWAY VISUAL RANGE
NOT REPORTED
WEATHER
SNOW, SLIGHT
CLOUDINESS
SCT007 BKN015 BKN052
TEMP / DEWPOINT
-14 ºC / -17 ºC
ALTIMETER
30.02 in. Hg
RECENT WEATHER
NOT REPORTED
WIND SHEAR
NOT REPORTED
REMARKS
RMK AO2 SLP204
SEA LEVEL PRESSURE: hPa

Your time UTC time
 
 
Weather data provided by AXYS Technologies Inc., www.axystechnologies.com
 
Station History